Latest Weather Observations for Low Rocky Point

IDT60801

Issued at 11:11 pm EDT Friday 15 November 2019 (issued every 10 minutes, with the page automatically refreshed every 10 minutes)

About weather observations | Map of weather stations | Latest weather observations for TAS | Other Formats
Station Details ID: 097080 Name: LOW ROCKY POINT Lat: -42.98 Lon: 145.50 Height: 34.0 m
Data from the previous 72 hours. | See also: Recent months at Low Rocky Point
Date/Time
EDT
Temp
°C
App
Temp
°C
Dew
Point
°C
Rel
Hum
%
Delta-T
°C
Wind Press
QNH
hPa
Press
MSL
hPa
Rain since
9am
mm
Dir  Spd
km/h
Gust
km/h
Spd
kts
Gust
kts
15/11:00pm 7.8 -1.6 5.6 86 1.0 W 44 67 24 36 1006.4 1006.4 -
15/10:45pm 8.8 -1.3 5.9 82 1.3 W 48 70 26 38 1006.4 1006.4 -
15/10:30pm 8.9 -0.1 6.3 84 1.2 W 43 54 23 29 1006.3 1006.3 -
15/10:03pm 9.7 -0.1 5.5 75 1.9 W 46 69 25 37 1006.0 1006.0 -
15/10:00pm 9.9 0.5 5.5 74 2.0 W 44 54 24 29 1006.0 1006.0 -
15/09:30pm 9.8 0.0 5.2 73 2.1 W 46 56 25 30 1006.0 1006.0 -
15/09:00pm 9.7 0.3 5.5 75 1.9 W 44 56 24 30 1005.7 1005.7 -
15/08:30pm 9.6 -1.2 5.8 77 1.7 W 52 63 28 34 1005.2 1005.2 -
15/08:00pm 9.3 0.2 6.7 84 1.2 W 44 56 24 30 1004.8 1004.8 -
15/07:35pm 9.5 -0.5 6.0 79 1.6 W 48 69 26 37 1004.5 1004.5 -
15/07:30pm 10.1 0.5 6.1 76 1.9 W 46 59 25 32 1004.5 1004.5 -
15/07:00pm 9.9 0.7 6.4 79 1.6 W 44 56 24 30 1004.1 1004.1 -
15/06:34pm 9.9 0.8 6.8 81 1.5 WNW 44 70 24 38 1003.6 1003.6 -
15/06:30pm 9.9 1.0 6.8 81 1.5 WNW 43 52 23 28 1003.6 1003.6 -
15/06:00pm 10.3 0.5 7.2 81 1.5 W 48 56 26 30 1003.2 1003.2 -
15/05:30pm 9.6 0.5 6.9 83 1.3 W 44 61 24 33 1003.0 1003.0 -
15/05:21pm 8.9 -1.1 6.0 82 1.3 W 48 76 26 41 1003.1 1003.1 -
15/05:18pm 9.3 0.0 5.9 79 1.6 W 44 76 24 41 1002.9 1002.9 -
15/05:17pm 10.2 1.2 6.4 77 1.8 W 43 76 23 41 1002.8 1002.8 -
15/05:00pm 11.1 1.9 6.5 73 2.2 W 44 52 24 28 1002.8 1002.8 -
15/04:30pm 10.9 0.3 6.8 76 1.9 W 52 61 28 33 1002.6 1002.6 -
15/04:00pm 10.5 0.4 7.6 82 1.4 W 50 59 27 32 1002.4 1002.4 -
15/03:32pm 8.2 0.6 5.8 85 1.1 WSW 35 56 19 30 1002.1 1002.1 -
15/03:30pm 7.8 0.5 5.3 84 1.1 WSW 33 48 18 26 1002.2 1002.2 -
15/03:26pm 8.3 0.9 5.1 80 1.4 W 33 48 18 26 1002.3 1002.3 -
15/03:25pm 8.3 0.5 4.9 79 1.5 W 35 48 19 26 1002.4 1002.4 -
15/03:02pm 9.8 1.2 6.5 80 1.5 WNW 41 61 22 33 1002.0 1002.0 -
15/03:00pm 10.0 1.8 6.5 79 1.6 WNW 39 46 21 25 1002.1 1002.1 -
15/02:30pm 11.4 3.7 7.3 76 2.0 W 37 48 20 26 1002.0 1002.0 -
15/02:00pm 10.5 1.3 8.1 85 1.2 WNW 46 56 25 30 1001.7 1001.7 -
15/01:30pm 8.7 -0.7 7.0 89 0.8 WNW 46 56 25 30 1001.5 1001.5 -
15/01:00pm 8.4 -2.8 5.9 84 1.1 W 54 72 29 39 1001.9 1001.9 -
15/12:54pm 9.0 -1.5 5.4 78 1.6 W 50 72 27 39 1001.6 1001.6 -
15/12:30pm 9.9 0.5 7.0 82 1.4 WNW 46 56 25 30 1001.5 1001.5 -
15/12:00pm 9.2 -0.2 7.3 88 0.9 WNW 46 54 25 29 1001.5 1001.5 -
15/11:40am 9.6 -0.2 6.9 83 1.3 WNW 48 70 26 38 1001.1 1001.1 -
15/11:30am 10.4 0.5 6.4 76 1.9 WNW 48 59 26 32 1001.2 1001.2 -
15/11:00am 11.5 1.6 6.8 73 2.3 WNW 48 59 26 32 1001.3 1001.3 -
15/10:30am 11.1 0.1 6.8 75 2.0 WNW 54 63 29 34 1001.1 1001.1 -
15/10:00am 10.2 -0.2 7.8 85 1.2 WNW 52 61 28 33 1001.2 1001.2 -
15/09:30am 8.9 -0.4 7.5 91 0.7 WNW 46 72 25 39 1001.2 1001.2 -
15/09:00am 8.4 -1.9 6.4 87 0.9 W 50 69 27 37 1001.3 1001.3 -
15/08:32am 9.6 0.5 6.9 83 1.3 WNW 44 63 24 34 1000.8 1000.8 -
15/08:30am 9.7 1.2 7.0 83 1.3 WNW 41 57 22 31 1000.8 1000.8 -
15/08:25am 9.4 2.7 7.3 87 1.0 W 32 50 17 27 1000.9 1000.9 -
15/08:15am 8.8 0.6 6.4 85 1.1 W 39 54 21 29 1001.2 1001.2 -
15/08:00am 10.3 1.0 5.9 74 2.0 WNW 44 59 24 32 1001.0 1001.0 -
15/07:30am 10.5 -0.1 5.3 70 2.4 WNW 50 59 27 32 1001.0 1001.0 -
15/07:00am 10.3 0.0 6.3 76 1.9 WNW 50 59 27 32 1000.7 1000.7 -
15/06:30am 10.1 -0.7 6.1 76 1.9 W 52 63 28 34 1000.5 1000.5 -
15/06:00am 9.8 -0.5 6.3 79 1.6 W 50 61 27 33 1000.5 1000.5 -
15/05:32am 9.2 -1.3 7.2 87 0.9 W 52 70 28 38 1000.2 1000.2 -
15/05:30am 8.9 -2.2 6.5 85 1.1 W 54 70 29 38 1000.2 1000.2 -
15/05:22am 10.6 -0.1 6.4 75 2.0 WNW 52 70 28 38 1000.0 1000.0 -
15/05:00am 10.7 0.8 6.6 76 1.9 WNW 48 59 26 32 999.8 999.8 -
15/04:30am 10.5 0.9 6.3 75 2.0 WNW 46 56 25 30 999.7 999.7 -
15/04:00am 10.3 -0.1 6.1 75 2.0 WNW 50 61 27 33 999.8 999.8 -
15/03:30am 10.5 0.3 7.0 79 1.7 WNW 50 59 27 32 999.9 999.9 -
15/03:00am 10.7 -0.2 7.4 80 1.6 WNW 54 67 29 36 999.8 999.8 -
15/02:50am 10.8 1.2 8.0 83 1.4 WNW 48 67 26 36 999.7 999.7 -
15/02:30am 10.7 1.9 7.9 83 1.4 WNW 44 56 24 30 999.9 999.9 -
15/02:00am 10.8 0.8 8.0 83 1.4 WNW 50 59 27 32 1000.1 1000.1 -
15/01:30am 10.8 1.4 8.9 88 0.9 WNW 48 59 26 32 1000.2 1000.2 -
15/01:00am 11.0 2.2 9.4 90 0.8 WNW 46 57 25 31 1000.4 1000.4 -
15/12:30am 10.8 1.2 9.4 91 0.7 WNW 50 61 27 33 1000.4 1000.4 -
15/12:00am 10.7 0.8 9.8 94 0.5 WNW 52 65 28 35 1000.3 1000.3 -
 
Date/Time
EDT
Temp
°C
App
Temp
°C
Dew
Point
°C
Rel
Hum
%
Delta-T
°C
Wind Press
QNH
hPa
Press
MSL
hPa
Rain since
9am
mm
Dir  Spd
km/h
Gust
km/h
Spd
kts
Gust
kts
14/11:30pm 10.8 0.1 10.3 97 0.3 WNW 57 69 31 37 1000.1 1000.1 -
14/11:00pm 10.2 0.0 10.1 99 0.1 WNW 54 67 29 36 1000.1 1000.1 -
14/10:30pm 10.9 0.9 10.7 99 0.1 WNW 54 70 29 38 1000.5 1000.5 -
14/10:11pm 11.0 1.4 10.8 99 0.1 WNW 52 70 28 38 1000.5 1000.5 -
14/10:00pm 11.0 1.0 10.8 99 0.1 WNW 54 67 29 36 1000.5 1000.5 -
14/09:44pm 10.8 0.2 10.6 99 0.1 WNW 57 80 31 43 1000.5 1000.5 -
14/09:30pm 10.9 0.5 10.7 99 0.1 NW 56 70 30 38 1000.5 1000.5 -
14/09:02pm 10.6 0.5 10.4 99 0.1 WNW 54 72 29 39 1000.2 1000.2 -
14/09:00pm 10.7 0.6 10.5 99 0.1 WNW 54 70 29 38 1000.2 1000.2 -
14/08:33pm 10.8 0.2 10.6 99 0.1 NW 57 78 31 42 1000.0 1000.0 -
14/08:30pm 10.7 0.3 10.5 99 0.1 NW 56 72 30 39 1000.0 1000.0 -
14/08:00pm 10.8 -0.6 10.6 99 0.1 NW 61 83 33 45 1000.2 1000.2 -
14/07:51pm 10.8 0.4 10.6 99 0.1 NW 56 74 30 40 1000.2 1000.2 -
14/07:30pm 10.7 0.1 10.5 99 0.1 NW 57 72 31 39 1000.3 1000.3 -
14/07:00pm 10.8 0.4 10.6 99 0.1 NW 56 74 30 40 1000.6 1000.6 -
14/06:46pm 10.5 -0.2 10.3 99 0.1 WNW 57 80 31 43 1000.5 1000.5 -
14/06:30pm 11.1 0.5 10.8 98 0.2 NW 57 70 31 38 1000.7 1000.7 -
14/06:00pm 11.0 0.4 10.8 99 0.1 NW 57 76 31 41 1001.0 1001.0 -
14/05:36pm 11.0 0.6 10.8 99 0.1 NW 56 76 30 41 1001.1 1001.1 -
14/05:30pm 11.0 0.6 10.8 99 0.1 NW 56 70 30 38 1001.2 1001.2 -
14/05:03pm 11.1 0.1 10.6 97 0.3 NW 59 78 32 42 1001.3 1001.3 -
14/05:00pm 11.2 -0.1 10.7 97 0.3 NW 61 76 33 41 1001.2 1001.2 -
14/04:36pm 10.8 -1.0 10.6 99 0.1 NW 63 83 34 45 1001.2 1001.2 -
14/04:30pm 11.0 0.1 10.8 99 0.1 NW 59 74 32 40 1001.2 1001.2 -
14/04:14pm 10.8 0.4 10.6 99 0.1 WNW 56 74 30 40 1001.5 1001.5 -
14/04:00pm 11.0 0.4 10.7 98 0.2 NW 57 72 31 39 1001.5 1001.5 -
14/03:34pm 11.1 0.8 10.9 99 0.1 NW 56 74 30 40 1002.1 1002.1 -
14/03:30pm 11.0 0.4 10.8 99 0.1 NW 57 74 31 40 1002.2 1002.2 -
14/03:00pm 10.4 -1.7 9.2 92 0.6 NW 63 83 34 45 1002.3 1002.3 -
14/02:33pm 11.7 0.9 9.8 88 1.0 NW 57 76 31 41 1002.6 1002.6 -
14/02:30pm 11.7 0.1 9.8 88 1.0 NW 61 76 33 41 1002.6 1002.6 -
14/02:00pm 11.5 0.7 9.9 90 0.8 NW 57 70 31 38 1002.8 1002.8 -
14/01:30pm 11.5 0.7 9.9 90 0.8 NW 57 72 31 39 1003.1 1003.1 -
14/01:00pm 11.3 2.3 10.2 93 0.6 NW 48 65 26 35 1003.3 1003.3 -
14/12:30pm 11.0 0.9 10.4 96 0.3 WNW 54 72 29 39 1003.6 1003.6 -
14/12:12pm 10.9 1.6 10.7 99 0.1 NW 50 69 27 37 1003.6 1003.6 -
14/12:00pm 10.7 1.4 10.5 99 0.1 NW 50 61 27 33 1003.5 1003.5 -
14/11:30am 10.5 1.9 10.3 99 0.1 WNW 46 54 25 29 1003.9 1003.9 -
14/11:10am 11.2 2.2 10.1 93 0.6 WNW 48 72 26 39 1003.8 1003.8 -
14/11:00am 11.6 2.3 10.7 94 0.5 WNW 50 59 27 32 1003.8 1003.8 -
14/10:30am 11.2 2.0 10.9 98 0.2 WNW 50 59 27 32 1003.9 1003.9 -
14/10:00am 10.9 1.6 10.7 99 0.1 WNW 50 61 27 33 1003.6 1003.6 -
14/09:42am 10.8 1.1 10.6 99 0.1 WNW 52 70 28 38 1003.6 1003.6 -
14/09:30am 10.7 0.6 10.5 99 0.1 WNW 54 65 29 35 1003.7 1003.7 -
14/09:00am 10.9 0.9 10.7 99 0.1 WNW 54 65 29 35 1003.5 1003.5 -
14/08:30am 10.9 0.9 10.7 99 0.1 WNW 54 76 29 41 1003.4 1003.4 -
14/08:29am 11.0 1.4 10.8 99 0.1 WNW 52 76 28 41 1003.4 1003.4 -
14/08:00am 11.3 2.5 11.1 99 0.1 WNW 48 61 26 33 1003.4 1003.4 -
14/07:30am 11.1 2.7 10.9 99 0.1 WNW 46 56 25 30 1003.6 1003.6 -
14/07:00am 11.1 2.3 10.9 99 0.1 WNW 48 59 26 32 1003.5 1003.5 -
14/06:30am 10.9 1.6 10.7 99 0.1 WNW 50 63 27 34 1003.5 1003.5 -
14/06:00am 11.1 2.3 10.9 99 0.1 WNW 48 57 26 31 1003.3 1003.3 -
14/05:30am 11.0 1.8 10.8 99 0.1 WNW 50 59 27 32 1003.1 1003.1 -
14/05:00am 11.0 1.8 10.8 99 0.1 WNW 50 61 27 33 1003.1 1003.1 -
14/04:30am 10.8 1.5 10.6 99 0.1 WNW 50 57 27 31 1003.2 1003.2 -
14/04:00am 10.7 0.6 10.5 99 0.1 WNW 54 61 29 33 1003.3 1003.3 -
14/03:30am 11.1 1.9 10.9 99 0.1 WNW 50 70 27 38 1003.5 1003.5 -
14/03:22am 11.0 1.8 10.8 99 0.1 WNW 50 70 27 38 1003.4 1003.4 -
14/03:00am 11.0 2.2 10.8 99 0.1 WNW 48 61 26 33 1003.6 1003.6 -
14/02:30am 10.9 2.0 10.7 99 0.1 WNW 48 59 26 32 1003.9 1003.9 -
14/02:00am 10.6 1.6 10.4 99 0.1 NW 48 61 26 33 1004.4 1004.4 -
14/01:30am 10.6 2.4 10.4 99 0.1 WNW 44 56 24 30 1004.9 1004.9 -
14/01:00am 10.5 2.4 10.0 97 0.3 NW 43 52 23 28 1005.4 1005.4 -
14/12:30am 10.5 2.6 9.4 93 0.5 WNW 41 50 22 27 1006.2 1006.2 -
14/12:00am 10.3 2.9 8.4 88 0.9 NW 37 46 20 25 1006.2 1006.2 -
 
Date/Time
EDT
Temp
°C
App
Temp
°C
Dew
Point
°C
Rel
Hum
%
Delta-T
°C
Wind Press
QNH
hPa
Press
MSL
hPa
Rain since
9am
mm
Dir  Spd
km/h
Gust
km/h
Spd
kts
Gust
kts
13/11:30pm 11.1 2.4 7.6 79 1.7 WNW 43 50 23 27 1006.7 1006.7 -
13/11:00pm 11.2 3.9 7.3 77 1.9 WNW 35 43 19 23 1007.1 1007.1 -
13/10:30pm 10.9 3.0 7.8 81 1.5 WNW 39 52 21 28 1007.4 1007.4 -
13/10:00pm 10.5 1.7 7.2 80 1.6 WNW 43 50 23 27 1007.4 1007.4 -
13/09:30pm 11.1 3.0 7.0 76 2.0 WNW 39 46 21 25 1007.3 1007.3 -
13/09:00pm 10.6 2.5 7.1 79 1.7 W 39 50 21 27 1007.4 1007.4 -
13/08:30pm 11.1 3.4 7.2 77 1.9 WNW 37 43 20 23 1007.2 1007.2 -
13/08:00pm 11.0 2.1 6.7 75 2.0 W 43 52 23 28 1007.1 1007.1 -
13/07:30pm 11.2 1.0 6.9 75 2.0 W 50 59 27 32 1006.3 1006.3 -
13/07:00pm 11.3 1.9 7.2 76 2.0 W 46 54 25 29 1005.8 1005.8 -
13/06:30pm 11.2 2.2 7.1 76 2.0 W 44 56 24 30 1005.5 1005.5 -
13/06:00pm 11.3 2.8 7.0 75 2.1 W 41 50 22 27 1005.3 1005.3 -
13/05:45pm 11.2 3.9 7.1 76 2.0 W 35 54 19 29 1005.0 1005.0 -
13/05:30pm 11.1 3.3 6.8 75 2.0 WSW 37 48 20 26 1005.0 1005.0 -
13/05:00pm 11.8 2.8 6.5 70 2.5 WSW 43 56 23 30 1004.7 1004.7 -
13/04:30pm 12.2 3.1 6.9 70 2.5 WSW 44 61 24 33 1004.2 1004.2 -
13/04:00pm 12.2 1.4 7.5 73 2.3 W 54 67 29 36 1003.8 1003.8 -
13/03:42pm 12.1 1.9 7.0 71 2.4 WSW 50 69 27 37 1003.4 1003.4 -
13/03:30pm 12.3 2.1 6.8 69 2.6 WSW 50 65 27 35 1003.3 1003.3 -
13/03:00pm 12.4 2.2 6.9 69 2.7 WSW 50 65 27 35 1002.9 1002.9 -
13/02:30pm 12.5 2.0 7.4 71 2.5 W 52 65 28 35 1002.8 1002.8 -
13/02:07pm 12.2 1.2 6.9 70 2.5 WSW 54 72 29 39 1002.4 1002.4 -
13/02:00pm 12.3 1.4 7.4 72 2.4 W 54 69 29 37 1002.5 1002.5 -
13/01:33pm 12.4 1.5 7.3 71 2.5 WSW 54 72 29 39 1002.2 1002.2 -
13/01:30pm 12.6 1.3 7.3 70 2.6 WSW 56 72 30 39 1002.2 1002.2 -
13/01:28pm 13.0 2.3 8.1 72 2.4 WSW 54 72 29 39 1002.2 1002.2 -
13/01:00pm 12.0 0.8 7.5 74 2.2 WSW 56 70 30 38 1001.9 1001.9 -
13/12:55pm 12.3 1.6 8.2 76 2.0 WSW 54 72 29 39 1001.9 1001.9 -
13/12:30pm 11.7 0.2 8.6 81 1.5 WSW 59 72 32 39 1001.5 1001.5 -
13/12:01pm 11.0 0.0 9.3 89 0.9 W 57 76 31 41 1001.1 1001.1 -
13/12:00pm 11.2 0.3 9.5 89 0.9 W 57 70 31 38 1001.1 1001.1 -
13/11:30am 11.1 0.6 10.9 99 0.1 W 57 72 31 39 1000.5 1000.5 -
13/11:00am 11.2 -0.1 11.0 99 0.1 W 61 78 33 42 999.9 999.9 -
13/10:37am 11.0 -1.1 10.8 99 0.1 WNW 65 83 35 45 999.6 999.6 -
13/10:30am 10.9 -1.6 10.7 99 0.1 WNW 67 80 36 43 999.6 999.6 -
13/10:00am 10.7 -1.1 10.5 99 0.1 WNW 63 80 34 43 999.6 999.6 -
13/09:30am 10.5 -1.0 10.3 99 0.1 WNW 61 80 33 43 1000.0 1000.0 -
13/09:28am 10.5 -1.0 10.3 99 0.1 WNW 61 80 33 43 999.9 999.9 -
13/09:00am 10.2 -1.7 10.1 99 0.1 WNW 63 78 34 42 1000.3 1000.3 -
13/08:42am 10.0 0.1 9.9 99 0.1 WNW 52 70 28 38 1000.4 1000.4 -
13/08:30am 9.7 -1.0 9.6 99 0.0 WNW 56 69 30 37 1000.8 1000.8 -
13/08:15am 9.6 0.0 9.5 99 0.0 WNW 50 72 27 39 1000.8 1000.8 -
13/08:00am 9.4 0.1 9.1 98 0.1 NW 48 59 26 32 1001.1 1001.1 -
13/07:30am 9.3 -1.3 8.5 95 0.4 WNW 54 63 29 34 1001.8 1001.8 -
13/07:16am 9.2 -0.3 8.4 95 0.4 WNW 48 69 26 37 1002.0 1002.0 -
13/07:00am 8.9 -0.3 7.8 93 0.5 WNW 46 54 25 29 1002.4 1002.4 -
13/06:30am 8.7 -2.6 7.2 90 0.7 WNW 56 67 30 36 1002.6 1002.6 -
13/06:00am 9.3 -0.2 6.6 83 1.3 WNW 46 59 25 32 1002.8 1002.8 -
13/05:30am 8.4 -2.1 5.7 83 1.2 WNW 50 59 27 32 1003.0 1003.0 -
13/05:17am 9.3 -1.1 6.0 80 1.5 W 50 74 27 40 1003.0 1003.0 -
13/05:00am 8.9 -1.2 5.6 80 1.5 W 48 61 26 33 1003.1 1003.1 -
13/04:45am 9.2 -2.0 5.8 79 1.6 WNW 54 74 29 40 1003.0 1003.0 -
13/04:30am 9.1 -1.4 5.8 80 1.5 WNW 50 59 27 32 1003.2 1003.2 -
13/04:00am 9.4 -0.9 4.8 73 2.1 W 48 61 26 33 1003.6 1003.6 -
13/03:30am 8.9 -0.7 4.5 74 1.9 W 44 56 24 30 1003.6 1003.6 -
13/03:00am 8.8 -1.2 4.2 73 2.0 W 46 59 25 32 1003.9 1003.9 -
13/02:36am 7.9 -2.6 3.9 76 1.7 W 48 67 26 36 1004.0 1004.0 -
13/02:30am 9.0 -1.5 3.8 70 2.3 W 48 57 26 31 1004.0 1004.0 -
13/02:00am 8.9 -0.6 4.1 72 2.1 W 43 52 23 28 1003.9 1003.9 -
13/01:30am 8.7 -1.8 3.5 70 2.2 W 48 63 26 34 1004.0 1004.0 -
13/01:00am 8.9 -1.7 4.9 76 1.8 WSW 50 63 27 34 1004.1 1004.1 -
13/12:30am 8.9 0.1 5.6 80 1.5 W 41 48 22 26 1003.9 1003.9 -
13/12:00am 8.6 -0.4 4.8 77 1.7 WSW 41 56 22 30 1004.1 1004.1 -
 
Date/Time
EDT
Temp
°C
App
Temp
°C
Dew
Point
°C
Rel
Hum
%
Delta-T
°C
Wind Press
QNH
hPa
Press
MSL
hPa
Rain since
9am
mm
Dir  Spd
km/h
Gust
km/h
Spd
kts
Gust
kts
12/11:30pm 7.4 -2.1 4.7 83 1.2 WSW 44 65 24 35 1004.1 1004.1 -
12/11:16pm 8.9 -1.4 4.9 76 1.8 WSW 48 67 26 36 1003.8 1003.8 -

Other formats

Comma delimited format used in spreadsheet applications
http://www.bom.gov.au/fwo/IDT60801/IDT60801.95961.axf

JavaScript Object Notation format (JSON) in row-major order
http://www.bom.gov.au/fwo/IDT60801/IDT60801.95961.json

Data quality

Most of these data are generated automatically and are frequently updated. Quality checks on data are not normally performed. It is possible for incorrect values to appear. Refer to information at About Latest Weather Observations and please check the disclaimer before using these data.